createdAt,value
2023-05-09T00:00:32.117Z,12.05
2023-05-09T00:01:32.083Z,12.04
2023-05-09T00:02:32.188Z,12.01
2023-05-09T00:03:32.081Z,11.98
2023-05-09T00:04:32.130Z,11.96
2023-05-09T00:05:32.058Z,11.94
2023-05-09T00:06:32.051Z,11.88
2023-05-09T00:07:32.028Z,11.88
2023-05-09T00:08:32.025Z,11.85
2023-05-09T00:09:32.023Z,11.84
2023-05-09T00:10:31.996Z,11.81
2023-05-09T00:11:31.988Z,11.79
2023-05-09T00:12:31.972Z,11.72
2023-05-09T00:13:31.976Z,11.67
2023-05-09T00:14:31.958Z,11.67
2023-05-09T00:15:32.019Z,11.66
2023-05-09T00:16:32.015Z,11.64
2023-05-09T00:17:32.014Z,11.63
2023-05-09T00:18:31.916Z,11.60
2023-05-09T00:19:31.903Z,11.59
2023-05-09T00:20:31.902Z,11.56
2023-05-09T00:21:31.905Z,11.54
2023-05-09T00:22:31.888Z,11.51
2023-05-09T00:23:31.868Z,11.51
2023-05-09T00:24:31.850Z,11.48
2023-05-09T00:25:31.840Z,11.45
2023-05-09T00:26:31.842Z,11.44
2023-05-09T00:27:31.838Z,11.44
2023-05-09T00:28:31.808Z,11.39
2023-05-09T00:29:31.811Z,11.36
2023-05-09T00:30:31.780Z,11.36
2023-05-09T00:31:31.814Z,11.31
2023-05-09T00:32:31.817Z,11.28
2023-05-09T00:33:31.780Z,11.24
2023-05-09T00:34:31.747Z,11.24
2023-05-09T00:35:31.740Z,11.19
2023-05-09T00:36:31.744Z,11.17
2023-05-09T00:37:31.741Z,11.16
2023-05-09T00:38:31.723Z,11.12
2023-05-09T00:39:31.692Z,11.09
2023-05-09T00:40:31.700Z,11.08
2023-05-09T00:41:31.684Z,11.05
2023-05-09T00:42:31.682Z,11.02
2023-05-09T00:43:31.675Z,11.03
2023-05-09T00:44:31.649Z,11.02
2023-05-09T00:45:31.642Z,11.01
2023-05-09T00:46:31.666Z,10.98
2023-05-09T00:47:31.638Z,10.95
2023-05-09T00:48:31.692Z,10.94
2023-05-09T00:49:31.620Z,10.93
2023-05-09T00:50:31.585Z,10.90
2023-05-09T00:51:31.562Z,10.88
2023-05-09T00:52:31.564Z,10.88
2023-05-09T00:53:31.558Z,10.86
2023-05-09T00:54:31.529Z,10.83
2023-05-09T00:55:31.558Z,10.83
2023-05-09T00:56:31.519Z,10.80
2023-05-09T00:57:31.507Z,10.80
2023-05-09T00:58:31.495Z,10.80
2023-05-09T00:59:31.492Z,10.76
2023-05-09T01:00:31.467Z,10.75
2023-05-09T01:01:31.530Z,10.70
2023-05-09T01:02:31.534Z,10.69
2023-05-09T01:03:31.528Z,10.66
2023-05-09T01:04:31.440Z,10.66
2023-05-09T01:05:31.422Z,10.65
2023-05-09T01:06:31.435Z,10.63
2023-05-09T01:07:31.417Z,10.60
2023-05-09T01:08:31.388Z,10.58
2023-05-09T01:09:31.380Z,10.58
2023-05-09T01:10:31.369Z,10.57
2023-05-09T01:11:31.387Z,10.54
2023-05-09T01:12:31.353Z,10.52
2023-05-09T01:13:31.335Z,10.51
2023-05-09T01:14:31.327Z,10.51
2023-05-09T01:15:31.335Z,10.49
2023-05-09T01:16:31.364Z,10.47
2023-05-09T01:17:31.373Z,10.44
2023-05-09T01:18:31.303Z,10.43
2023-05-09T01:19:31.269Z,10.39
2023-05-09T01:20:31.268Z,10.39
2023-05-09T01:21:31.254Z,10.39
2023-05-09T01:22:31.275Z,10.36
2023-05-09T01:23:31.230Z,10.36
2023-05-09T01:24:31.224Z,10.36
2023-05-09T01:25:31.220Z,10.38
2023-05-09T01:26:31.199Z,10.36
2023-05-09T01:27:31.192Z,10.34
2023-05-09T01:28:31.197Z,10.35
2023-05-09T01:29:31.174Z,10.36
2023-05-09T01:30:31.155Z,10.34
2023-05-09T01:31:31.184Z,10.36
2023-05-09T01:32:31.166Z,10.35
2023-05-09T01:33:31.126Z,10.36
2023-05-09T01:34:31.130Z,10.36
2023-05-09T01:35:31.125Z,10.38
2023-05-09T01:36:31.086Z,10.39
2023-05-09T01:37:31.086Z,10.42
2023-05-09T01:38:31.076Z,10.43
2023-05-09T01:39:31.081Z,10.43
2023-05-09T01:40:31.057Z,10.44
2023-05-09T01:41:31.042Z,10.43
2023-05-09T01:42:31.023Z,10.43
2023-05-09T01:43:31.035Z,10.44
2023-05-09T01:44:31.006Z,10.46
2023-05-09T01:45:31.015Z,10.46
2023-05-09T01:46:31.059Z,10.47
2023-05-09T01:47:31.004Z,10.47
2023-05-09T01:48:30.964Z,10.47
2023-05-09T01:49:30.957Z,10.47
2023-05-09T01:50:30.965Z,10.49
2023-05-09T01:51:30.936Z,10.47
2023-05-09T01:52:30.936Z,10.47
2023-05-09T01:53:30.924Z,10.46
2023-05-09T01:54:30.900Z,10.44
2023-05-09T01:55:30.912Z,10.44
2023-05-09T01:56:30.886Z,10.42
2023-05-09T01:57:30.869Z,10.36
2023-05-09T01:58:30.880Z,10.34
2023-05-09T01:59:30.854Z,10.34
2023-05-09T02:00:30.877Z,10.31
2023-05-09T02:01:30.833Z,10.31
2023-05-09T02:02:30.961Z,10.31
2023-05-09T02:03:30.807Z,10.29
2023-05-09T02:04:30.828Z,10.29
2023-05-09T02:05:30.800Z,10.29
2023-05-09T02:06:30.774Z,10.28
2023-05-09T02:07:30.777Z,10.26
2023-05-09T02:08:30.761Z,10.24
2023-05-09T02:09:30.744Z,10.22
2023-05-09T02:10:30.762Z,10.22
2023-05-09T02:11:30.735Z,10.22
2023-05-09T02:12:30.714Z,10.18
2023-05-09T02:13:30.702Z,10.17
2023-05-09T02:14:30.714Z,10.18
2023-05-09T02:15:30.725Z,10.17
2023-05-09T02:16:30.724Z,10.17
2023-05-09T02:17:30.791Z,10.16
2023-05-09T02:18:30.648Z,10.13
2023-05-09T02:19:30.648Z,10.13
2023-05-09T02:20:30.634Z,10.13
2023-05-09T02:21:30.637Z,10.11
2023-05-09T02:22:30.608Z,10.11
2023-05-09T02:23:30.602Z,10.11
2023-05-09T02:24:30.580Z,10.10
2023-05-09T02:25:30.604Z,10.10
2023-05-09T02:26:30.564Z,10.11
2023-05-09T02:27:30.563Z,10.09
2023-05-09T02:28:30.564Z,10.11
2023-05-09T02:29:30.531Z,10.10
2023-05-09T02:30:30.528Z,10.10
2023-05-09T02:31:30.514Z,10.09
2023-05-09T02:32:30.538Z,10.07
2023-05-09T02:33:30.489Z,10.02
2023-05-09T02:34:30.492Z,10.01
2023-05-09T02:35:30.474Z,10.02
2023-05-09T02:36:30.451Z,9.99
2023-05-09T02:37:30.463Z,9.99
2023-05-09T02:38:30.445Z,9.99
2023-05-09T02:39:30.435Z,9.98
2023-05-09T02:40:30.427Z,9.96
2023-05-09T02:41:30.409Z,9.96
2023-05-09T02:42:30.410Z,9.99
2023-05-09T02:43:30.480Z,9.96
2023-05-09T02:44:30.381Z,9.98
2023-05-09T02:45:30.380Z,9.96
2023-05-09T02:46:30.406Z,9.96
2023-05-09T02:47:30.357Z,9.96
2023-05-09T02:48:30.328Z,9.96
2023-05-09T02:49:32.517Z,9.95
2023-05-09T02:50:30.314Z,9.95
2023-05-09T02:51:30.304Z,9.93
2023-05-09T02:52:30.288Z,9.93
2023-05-09T02:53:30.285Z,9.93
2023-05-09T02:54:30.278Z,9.95
2023-05-09T02:55:30.283Z,9.93
2023-05-09T02:56:30.270Z,9.93
2023-05-09T02:57:30.234Z,9.92
2023-05-09T02:58:30.227Z,9.93
2023-05-09T02:59:30.221Z,9.93
2023-05-09T03:00:30.207Z,9.95
2023-05-09T03:01:30.243Z,9.95
2023-05-09T03:02:30.264Z,9.95
2023-05-09T03:03:30.342Z,9.95
2023-05-09T03:04:30.177Z,9.95
2023-05-09T03:05:30.158Z,9.95
2023-05-09T03:06:30.159Z,9.95
2023-05-09T03:07:30.145Z,9.95
2023-05-09T03:08:30.122Z,9.95
2023-05-09T03:09:30.118Z,9.95
2023-05-09T03:10:30.093Z,9.95
2023-05-09T03:11:30.107Z,9.95
2023-05-09T03:12:30.080Z,9.93
2023-05-09T03:13:30.066Z,9.93
2023-05-09T03:14:30.069Z,9.93
2023-05-09T03:15:29.996Z,9.95
2023-05-09T03:16:30.234Z,9.93
2023-05-09T03:17:30.069Z,9.95
2023-05-09T03:18:29.980Z,9.91
2023-05-09T03:19:30.010Z,9.92
2023-05-09T03:20:29.994Z,9.91
2023-05-09T03:21:29.999Z,9.91
2023-05-09T03:22:29.996Z,9.88
2023-05-09T03:23:29.972Z,9.86
2023-05-09T03:24:29.968Z,9.85
2023-05-09T03:25:29.979Z,9.86
2023-05-09T03:26:29.893Z,9.85
2023-05-09T03:27:29.874Z,9.83
2023-05-09T03:28:29.874Z,9.81
2023-05-09T03:29:29.876Z,9.85
2023-05-09T03:30:29.848Z,9.81
2023-05-09T03:31:29.882Z,9.80
2023-05-09T03:32:29.916Z,9.78
2023-05-09T03:33:29.815Z,9.81
2023-05-09T03:34:29.808Z,9.80
2023-05-09T03:35:29.809Z,9.80
2023-05-09T03:36:29.773Z,9.80
2023-05-09T03:37:29.768Z,9.78
2023-05-09T03:38:29.764Z,9.78
2023-05-09T03:39:29.776Z,9.80
2023-05-09T03:40:29.734Z,9.81
2023-05-09T03:41:29.724Z,9.81
2023-05-09T03:42:29.722Z,9.83
2023-05-09T03:43:29.701Z,9.83
2023-05-09T03:44:29.691Z,9.83
2023-05-09T03:45:29.689Z,9.85
2023-05-09T03:46:29.700Z,9.85
2023-05-09T03:47:29.682Z,9.83
2023-05-09T03:48:29.653Z,9.85
2023-05-09T03:49:29.661Z,9.85
2023-05-09T03:50:29.622Z,9.86
2023-05-09T03:51:29.617Z,9.86
2023-05-09T03:52:29.596Z,9.86
2023-05-09T03:53:29.593Z,9.88
2023-05-09T03:54:29.591Z,9.86
2023-05-09T03:55:29.590Z,9.89
2023-05-09T03:56:29.581Z,9.89
2023-05-09T03:57:29.703Z,9.92
2023-05-09T03:58:30.244Z,9.91
2023-05-09T03:59:29.570Z,9.93
2023-05-09T04:00:29.514Z,9.93
2023-05-09T04:01:29.523Z,9.96
2023-05-09T04:02:29.600Z,9.96
2023-05-09T04:03:29.532Z,9.99
2023-05-09T04:04:29.474Z,10.01
2023-05-09T04:05:29.487Z,10.01
2023-05-09T04:06:29.454Z,10.02
2023-05-09T04:07:29.443Z,10.06
2023-05-09T04:08:29.434Z,10.07
2023-05-09T04:09:29.417Z,10.10
2023-05-09T04:10:29.398Z,10.11
2023-05-09T04:11:29.421Z,10.14
2023-05-09T04:12:29.379Z,10.14
2023-05-09T04:13:29.438Z,10.17
2023-05-09T04:14:29.373Z,10.20
2023-05-09T04:15:29.355Z,10.24
2023-05-09T04:16:29.405Z,10.26
2023-05-09T04:17:29.369Z,10.29
2023-05-09T04:18:29.352Z,10.28
2023-05-09T04:19:29.333Z,10.34
2023-05-09T04:20:29.297Z,10.36
2023-05-09T04:21:29.299Z,10.38
2023-05-09T04:22:29.279Z,10.42
2023-05-09T04:23:29.270Z,10.46
2023-05-09T04:24:29.304Z,10.47
2023-05-09T04:25:29.245Z,10.51
2023-05-09T04:26:29.241Z,10.52
2023-05-09T04:27:29.275Z,10.55
2023-05-09T04:28:29.212Z,10.58
2023-05-09T04:29:29.235Z,10.65
2023-05-09T04:30:29.218Z,10.65
2023-05-09T04:31:29.364Z,10.69
2023-05-09T04:32:29.202Z,10.72
2023-05-09T04:33:29.220Z,10.75
2023-05-09T04:34:29.146Z,10.78
2023-05-09T04:35:29.180Z,10.81
2023-05-09T04:36:29.153Z,10.84
2023-05-09T04:37:29.111Z,10.88
2023-05-09T04:38:29.107Z,10.90
2023-05-09T04:39:29.096Z,10.93
2023-05-09T04:40:29.088Z,10.95
2023-05-09T04:41:29.093Z,10.95
2023-05-09T04:42:29.062Z,10.98
2023-05-09T04:43:29.059Z,11.01
2023-05-09T04:44:29.041Z,11.02
2023-05-09T04:45:29.077Z,11.05
2023-05-09T04:46:29.038Z,11.06
2023-05-09T04:47:29.026Z,11.09
2023-05-09T04:48:29.002Z,11.16
2023-05-09T04:49:28.987Z,11.16
2023-05-09T04:50:28.979Z,11.19
2023-05-09T04:51:28.978Z,11.19
2023-05-09T04:52:28.968Z,11.21
2023-05-09T04:53:28.939Z,11.24
2023-05-09T04:54:28.996Z,11.26
2023-05-09T04:55:28.926Z,11.28
2023-05-09T04:56:28.927Z,11.28
2023-05-09T04:57:28.924Z,11.30
2023-05-09T04:58:28.911Z,11.30
2023-05-09T04:59:28.877Z,11.33
2023-05-09T05:00:28.870Z,11.33
2023-05-09T05:01:28.875Z,11.36
2023-05-09T05:02:28.898Z,11.38
2023-05-09T05:03:28.848Z,11.38
2023-05-09T05:04:28.879Z,11.38
2023-05-09T05:05:29.001Z,11.41
2023-05-09T05:06:28.923Z,11.42
2023-05-09T05:07:28.817Z,11.45
2023-05-09T05:08:28.817Z,11.45
2023-05-09T05:09:28.790Z,11.48
2023-05-09T05:10:28.774Z,11.46
2023-05-09T05:11:28.757Z,11.51
2023-05-09T05:12:28.759Z,11.49
2023-05-09T05:13:28.805Z,11.54
2023-05-09T05:14:28.734Z,11.54
2023-05-09T05:15:28.736Z,11.57
2023-05-09T05:16:28.738Z,11.60
2023-05-09T05:17:28.738Z,11.59
2023-05-09T05:18:28.691Z,11.60
2023-05-09T05:19:28.699Z,11.62
2023-05-09T05:20:28.680Z,11.62
2023-05-09T05:21:28.658Z,11.62
2023-05-09T05:22:30.361Z,11.62
2023-05-09T05:23:28.632Z,11.62
2023-05-09T05:24:28.626Z,11.62
2023-05-09T05:25:28.618Z,11.67
2023-05-09T05:26:28.610Z,11.70
2023-05-09T05:27:28.599Z,11.70
2023-05-09T05:28:28.607Z,11.77
2023-05-09T05:29:28.578Z,11.84
2023-05-09T05:30:28.557Z,11.88
2023-05-09T05:31:28.593Z,11.93
2023-05-09T05:32:28.577Z,11.97
2023-05-09T05:33:28.535Z,12.03
2023-05-09T05:34:28.543Z,12.08
2023-05-09T05:35:28.512Z,12.13
2023-05-09T05:36:28.511Z,12.18
2023-05-09T05:37:28.508Z,12.18
2023-05-09T05:38:28.478Z,12.25
2023-05-09T05:39:28.464Z,12.34
2023-05-09T05:40:28.464Z,12.41
2023-05-09T05:41:28.444Z,12.48
2023-05-09T05:42:28.457Z,12.54
2023-05-09T05:43:28.421Z,12.62
2023-05-09T05:44:28.440Z,12.67
2023-05-09T05:45:28.409Z,12.74
2023-05-09T05:46:28.397Z,12.80
2023-05-09T05:47:28.427Z,12.87
2023-05-09T05:48:28.382Z,12.92
2023-05-09T05:49:28.363Z,12.95
2023-05-09T05:50:28.353Z,12.96
2023-05-09T05:51:28.341Z,12.98
2023-05-09T05:52:28.330Z,13.03
2023-05-09T05:53:29.022Z,13.04
2023-05-09T05:54:28.309Z,13.06
2023-05-09T05:55:28.310Z,13.09
2023-05-09T05:56:28.293Z,13.12
2023-05-09T05:57:28.307Z,13.14
2023-05-09T05:58:28.269Z,13.14
2023-05-09T05:59:28.286Z,13.19
2023-05-09T06:00:28.261Z,13.22
2023-05-09T06:01:28.236Z,13.27
2023-05-09T06:02:28.424Z,13.31
2023-05-09T06:03:28.248Z,13.35
2023-05-09T06:04:28.204Z,13.36
2023-05-09T06:05:28.202Z,13.38
2023-05-09T06:06:28.176Z,13.41
2023-05-09T06:07:28.633Z,13.43
2023-05-09T06:08:28.156Z,13.46
2023-05-09T06:09:28.149Z,13.46
2023-05-09T06:10:28.133Z,13.47
2023-05-09T06:11:28.121Z,13.50
2023-05-09T06:12:28.259Z,13.51
2023-05-09T06:13:28.184Z,13.54
2023-05-09T06:14:28.098Z,13.55
2023-05-09T06:15:28.087Z,13.61
2023-05-09T06:16:28.124Z,13.65
2023-05-09T06:17:28.077Z,13.69
2023-05-09T06:18:28.041Z,13.69
2023-05-09T06:19:28.052Z,13.72
2023-05-09T06:20:28.902Z,13.76
2023-05-09T06:21:28.008Z,13.76
2023-05-09T06:22:28.000Z,13.83
2023-05-09T06:23:27.992Z,13.83
2023-05-09T06:24:35.997Z,13.86
2023-05-09T06:25:27.972Z,13.84
2023-05-09T06:26:27.958Z,13.87
2023-05-09T06:27:27.945Z,13.88
2023-05-09T06:28:27.958Z,13.88
2023-05-09T06:29:27.925Z,13.91
2023-05-09T06:30:27.928Z,13.94
2023-05-09T06:31:27.947Z,13.98
2023-05-09T06:32:27.919Z,14.04
2023-05-09T06:33:27.908Z,14.12
2023-05-09T06:34:27.878Z,14.21
2023-05-09T06:35:27.877Z,14.27
2023-05-09T06:36:27.860Z,14.31
2023-05-09T06:37:27.868Z,14.34
2023-05-09T06:38:27.847Z,14.41
2023-05-09T06:39:27.839Z,14.53
2023-05-09T06:40:27.913Z,14.57
2023-05-09T06:41:27.805Z,14.67
2023-05-09T06:42:27.814Z,14.83
2023-05-09T06:43:27.803Z,15.20
2023-05-09T06:44:27.776Z,15.58
2023-05-09T06:45:27.806Z,15.92
2023-05-09T06:46:27.847Z,16.18
2023-05-09T06:47:27.818Z,16.34
2023-05-09T06:48:27.714Z,16.23
2023-05-09T06:49:27.744Z,16.11
2023-05-09T06:50:27.767Z,15.89
2023-05-09T06:51:27.716Z,15.81
2023-05-09T06:52:27.720Z,15.85
2023-05-09T06:53:27.692Z,15.73
2023-05-09T06:54:27.695Z,15.59
2023-05-09T06:55:27.681Z,15.64
2023-05-09T06:56:27.629Z,15.68
2023-05-09T06:57:27.643Z,15.76
2023-05-09T06:58:27.641Z,15.76
2023-05-09T06:59:27.617Z,15.67
2023-05-09T07:00:27.602Z,15.59
2023-05-09T07:01:27.676Z,15.62
2023-05-09T07:02:27.619Z,15.80
2023-05-09T07:03:27.582Z,15.93
2023-05-09T07:04:27.554Z,16.16
2023-05-09T07:05:27.655Z,16.29
2023-05-09T07:06:27.545Z,16.41
2023-05-09T07:07:27.522Z,16.52
2023-05-09T07:08:27.518Z,16.62
2023-05-09T07:09:27.514Z,16.66
2023-05-09T07:10:27.537Z,16.66
2023-05-09T07:11:27.487Z,16.59
2023-05-09T07:12:27.478Z,16.59
2023-05-09T07:13:27.468Z,16.65
2023-05-09T07:14:27.487Z,16.73
2023-05-09T07:15:40.378Z,16.77
2023-05-09T07:16:27.487Z,16.80
2023-05-09T07:17:27.452Z,16.81
2023-05-09T07:18:27.690Z,16.80
2023-05-09T07:19:27.399Z,16.75
2023-05-09T07:20:27.400Z,16.69
2023-05-09T07:21:27.375Z,16.62
2023-05-09T07:22:29.948Z,16.57
2023-05-09T07:23:27.376Z,16.55
2023-05-09T07:24:27.374Z,16.48
2023-05-09T07:25:27.349Z,16.41
2023-05-09T07:26:27.327Z,16.44
2023-05-09T07:27:27.316Z,16.44
2023-05-09T07:28:27.302Z,16.44
2023-05-09T07:29:27.295Z,16.42
2023-05-09T07:30:27.342Z,16.36
2023-05-09T07:31:27.304Z,16.33
2023-05-09T07:32:27.278Z,16.33
2023-05-09T07:33:27.265Z,16.30
2023-05-09T07:34:27.235Z,16.27
2023-05-09T07:35:27.248Z,16.23
2023-05-09T07:36:27.223Z,16.18
2023-05-09T07:37:27.217Z,16.10
2023-05-09T07:38:27.192Z,16.13
2023-05-09T07:39:27.210Z,16.17
2023-05-09T07:40:27.181Z,16.25
2023-05-09T07:41:27.193Z,16.33
2023-05-09T07:42:27.156Z,16.36
2023-05-09T07:43:27.148Z,16.40
2023-05-09T07:44:27.128Z,16.47
2023-05-09T07:45:27.267Z,16.50
2023-05-09T07:46:27.204Z,16.50
2023-05-09T07:47:27.164Z,16.50
2023-05-09T07:48:27.094Z,16.50
2023-05-09T07:49:27.070Z,16.45
2023-05-09T07:50:27.104Z,16.41
2023-05-09T07:51:27.050Z,16.34
2023-05-09T07:52:27.056Z,16.26
2023-05-09T07:53:27.040Z,16.22
2023-05-09T07:54:27.018Z,16.13
2023-05-09T07:55:27.014Z,16.13
2023-05-09T07:56:27.018Z,16.14
2023-05-09T07:57:27.012Z,16.13
2023-05-09T07:58:26.998Z,16.13
2023-05-09T07:59:26.971Z,16.16
2023-05-09T08:00:27.148Z,16.23
2023-05-09T08:01:26.958Z,16.25
2023-05-09T08:02:26.987Z,16.29
2023-05-09T08:03:26.964Z,16.30
2023-05-09T08:04:27.036Z,16.34
2023-05-09T08:05:26.973Z,16.40
2023-05-09T08:06:26.891Z,16.42
2023-05-09T08:07:26.886Z,16.45
2023-05-09T08:08:26.907Z,16.44
2023-05-09T08:09:26.883Z,16.47
2023-05-09T08:10:26.862Z,16.48
2023-05-09T08:11:26.966Z,16.50
2023-05-09T08:12:26.830Z,16.55
2023-05-09T08:13:26.893Z,16.63
2023-05-09T08:14:26.845Z,16.69
2023-05-09T08:15:26.825Z,16.75
2023-05-09T08:16:26.914Z,16.81
2023-05-09T08:17:26.799Z,16.82
2023-05-09T08:18:26.770Z,16.87
2023-05-09T08:19:26.775Z,16.88
2023-05-09T08:20:26.752Z,16.92
2023-05-09T08:21:26.785Z,16.92
2023-05-09T08:22:26.728Z,16.92
2023-05-09T08:23:27.126Z,16.92
2023-05-09T08:24:26.743Z,16.98
2023-05-09T08:25:26.699Z,16.98
2023-05-09T08:26:26.703Z,16.99
2023-05-09T08:27:26.743Z,16.98
2023-05-09T08:28:26.686Z,16.99
2023-05-09T08:29:26.666Z,17.05
2023-05-09T08:30:26.652Z,17.07
2023-05-09T08:31:26.674Z,17.12
2023-05-09T08:32:26.672Z,17.09
2023-05-09T08:33:26.783Z,17.12
2023-05-09T08:34:26.615Z,17.09
2023-05-09T08:35:26.605Z,17.09
2023-05-09T08:36:26.603Z,17.10
2023-05-09T08:37:26.576Z,17.09
2023-05-09T08:38:26.568Z,17.09
2023-05-09T08:39:26.575Z,17.05
2023-05-09T08:40:26.547Z,17.03
2023-05-09T08:41:26.528Z,16.98
2023-05-09T08:42:26.781Z,16.90
2023-05-09T08:43:26.510Z,16.81
2023-05-09T08:44:26.501Z,16.72
2023-05-09T08:45:26.524Z,16.66
2023-05-09T08:46:26.548Z,16.62
2023-05-09T08:47:26.499Z,16.55
2023-05-09T08:48:26.538Z,16.57
2023-05-09T08:49:26.473Z,16.54
2023-05-09T08:50:26.434Z,16.54
2023-05-09T08:51:26.452Z,16.52
2023-05-09T08:52:26.414Z,16.48
2023-05-09T08:53:26.438Z,16.48
2023-05-09T08:54:26.411Z,16.45
2023-05-09T08:55:26.396Z,16.45
2023-05-09T08:56:26.425Z,16.42
2023-05-09T08:57:26.377Z,16.41
2023-05-09T08:58:26.374Z,16.41
2023-05-09T08:59:26.384Z,16.41
2023-05-09T09:00:26.341Z,16.37
2023-05-09T09:01:26.334Z,16.34
2023-05-09T09:02:26.408Z,16.34
2023-05-09T09:03:26.314Z,16.34
2023-05-09T09:04:26.335Z,16.32
2023-05-09T09:05:40.788Z,16.32
2023-05-09T09:06:26.289Z,16.33
2023-05-09T09:07:26.260Z,16.34
2023-05-09T09:08:26.250Z,16.36
2023-05-09T09:09:26.257Z,16.33
2023-05-09T09:10:26.226Z,16.34
2023-05-09T09:11:26.236Z,16.34
2023-05-09T09:12:26.203Z,16.32
2023-05-09T09:13:26.272Z,16.33
2023-05-09T09:14:26.184Z,16.32
2023-05-09T09:15:26.275Z,16.33
2023-05-09T09:16:26.300Z,16.34
2023-05-09T09:17:26.179Z,16.34
2023-05-09T09:18:26.157Z,16.37
2023-05-09T09:19:26.136Z,16.37
2023-05-09T09:20:26.138Z,16.37
2023-05-09T09:21:26.119Z,16.40
2023-05-09T09:22:26.130Z,16.42
2023-05-09T09:23:26.107Z,16.44
2023-05-09T09:24:26.106Z,16.48
2023-05-09T09:25:26.078Z,16.50
2023-05-09T09:26:26.169Z,16.50
2023-05-09T09:27:26.050Z,16.52
2023-05-09T09:28:26.036Z,16.50
2023-05-09T09:29:26.054Z,16.52
2023-05-09T09:30:26.046Z,16.52
2023-05-09T09:31:26.094Z,16.57
2023-05-09T09:32:26.004Z,16.57
2023-05-09T09:33:25.987Z,16.62
2023-05-09T09:34:25.987Z,16.65
2023-05-09T09:35:25.961Z,16.67
2023-05-09T09:36:25.973Z,16.73
2023-05-09T09:37:25.939Z,16.77
2023-05-09T09:38:25.931Z,16.80
2023-05-09T09:39:25.923Z,16.82
2023-05-09T09:40:25.914Z,16.85
2023-05-09T09:41:25.914Z,16.87
2023-05-09T09:42:25.901Z,16.90
2023-05-09T09:43:25.886Z,16.92
2023-05-09T09:44:25.874Z,16.98
2023-05-09T09:45:25.873Z,17.02
2023-05-09T09:46:25.885Z,17.05
2023-05-09T09:47:25.876Z,17.14
2023-05-09T09:48:25.977Z,17.17
2023-05-09T09:49:25.847Z,17.17
2023-05-09T09:50:25.831Z,17.18
2023-05-09T09:51:25.811Z,17.21
2023-05-09T09:52:25.790Z,17.25
2023-05-09T09:53:25.803Z,17.30
2023-05-09T09:54:25.780Z,17.32
2023-05-09T09:55:25.763Z,17.33
2023-05-09T09:56:25.762Z,17.33
2023-05-09T09:57:25.740Z,17.35
2023-05-09T09:58:25.779Z,17.35
2023-05-09T09:59:25.789Z,17.36
2023-05-09T10:00:25.697Z,17.40
2023-05-09T10:01:25.708Z,17.42
2023-05-09T10:02:25.684Z,17.43
2023-05-09T10:03:25.847Z,17.45
2023-05-09T10:04:25.698Z,17.46
2023-05-09T10:05:25.650Z,17.47
2023-05-09T10:06:25.636Z,17.51
2023-05-09T10:07:25.718Z,17.49
2023-05-09T10:08:25.627Z,17.51
2023-05-09T10:09:25.612Z,17.53
2023-05-09T10:10:25.637Z,17.51
2023-05-09T10:11:25.606Z,17.46
2023-05-09T10:12:25.578Z,17.46
2023-05-09T10:13:25.641Z,17.45
2023-05-09T10:14:25.554Z,17.45
2023-05-09T10:15:25.682Z,17.47
2023-05-09T10:16:35.719Z,17.46
2023-05-09T10:17:25.621Z,17.46
2023-05-09T10:18:25.710Z,17.49
2023-05-09T10:19:25.515Z,17.49
2023-05-09T10:20:25.492Z,17.47
2023-05-09T10:21:25.518Z,17.51
2023-05-09T10:22:25.473Z,17.55
2023-05-09T10:23:25.484Z,17.51
2023-05-09T10:24:25.449Z,17.46
2023-05-09T10:25:25.451Z,17.46
2023-05-09T10:26:25.437Z,17.46
2023-05-09T10:27:25.472Z,17.46
2023-05-09T10:28:25.410Z,17.46
2023-05-09T10:29:25.395Z,17.47
2023-05-09T10:30:25.390Z,17.49
2023-05-09T10:31:25.437Z,17.51
2023-05-09T10:32:25.396Z,17.55
2023-05-09T10:33:25.345Z,17.55
2023-05-09T10:34:25.353Z,17.60
2023-05-09T10:35:25.367Z,17.62
2023-05-09T10:36:25.345Z,17.65
2023-05-09T10:37:25.375Z,17.65
2023-05-09T10:38:25.335Z,17.68
2023-05-09T10:39:25.279Z,17.70
2023-05-09T10:40:25.294Z,17.71
2023-05-09T10:41:25.295Z,17.70
2023-05-09T10:42:25.297Z,17.73
2023-05-09T10:43:25.292Z,17.79
2023-05-09T10:44:25.292Z,17.81
2023-05-09T10:45:25.234Z,17.84
2023-05-09T10:46:26.112Z,17.87
2023-05-09T10:47:25.208Z,17.91
2023-05-09T10:48:25.209Z,17.96
2023-05-09T10:49:25.205Z,18.04
2023-05-09T10:50:25.192Z,18.09
2023-05-09T10:51:25.184Z,18.11
2023-05-09T10:52:25.146Z,18.16
2023-05-09T10:53:27.788Z,18.20
2023-05-09T10:54:28.609Z,18.26
2023-05-09T10:55:25.119Z,18.26
2023-05-09T10:56:27.745Z,18.32
2023-05-09T10:57:25.096Z,18.35
2023-05-09T10:58:25.086Z,18.39
2023-05-09T10:59:25.100Z,18.41
2023-05-09T11:00:25.074Z,18.42
2023-05-09T11:01:25.141Z,18.42
2023-05-09T11:02:25.051Z,18.42
2023-05-09T11:03:25.133Z,18.42
2023-05-09T11:04:25.156Z,18.44
2023-05-09T11:05:25.027Z,18.42
2023-05-09T11:06:25.698Z,18.42
2023-05-09T11:07:25.008Z,18.39
2023-05-09T11:08:25.126Z,18.38
2023-05-09T11:09:25.032Z,18.36
2023-05-09T11:10:24.960Z,18.38
2023-05-09T11:11:24.951Z,18.38
2023-05-09T11:12:24.968Z,18.39
2023-05-09T11:13:25.104Z,18.39
2023-05-09T11:14:24.923Z,18.41
2023-05-09T11:15:27.232Z,18.41
2023-05-09T11:16:24.967Z,18.41
2023-05-09T11:17:24.963Z,18.44
2023-05-09T11:18:24.900Z,18.46
2023-05-09T11:19:24.864Z,18.47
2023-05-09T11:20:24.873Z,18.51
2023-05-09T11:21:24.853Z,18.56
2023-05-09T11:22:24.851Z,18.59
2023-05-09T11:23:24.820Z,18.62
2023-05-09T11:24:24.830Z,18.65
2023-05-09T11:25:24.806Z,18.74
2023-05-09T11:26:24.791Z,18.74
2023-05-09T11:27:24.797Z,18.76
2023-05-09T11:28:24.790Z,18.79
2023-05-09T11:29:24.772Z,18.83
2023-05-09T11:30:24.776Z,18.82
2023-05-09T11:31:24.862Z,18.83
2023-05-09T11:32:24.789Z,18.78
2023-05-09T11:33:24.769Z,18.74
2023-05-09T11:34:24.715Z,18.72
2023-05-09T11:35:24.753Z,18.69
2023-05-09T11:36:24.708Z,18.71
2023-05-09T11:37:24.679Z,18.69
2023-05-09T11:38:24.683Z,18.71
2023-05-09T11:39:24.668Z,18.74
2023-05-09T11:40:24.671Z,18.75
2023-05-09T11:41:24.639Z,18.79
2023-05-09T11:42:24.639Z,18.78
2023-05-09T11:43:24.618Z,18.83
2023-05-09T11:44:24.634Z,18.86
2023-05-09T11:45:24.608Z,18.93
2023-05-09T11:46:24.641Z,18.96
2023-05-09T11:47:24.611Z,18.99
2023-05-09T11:48:24.562Z,18.99
2023-05-09T11:49:24.559Z,19.05
2023-05-09T11:50:24.553Z,19.07
2023-05-09T11:51:24.527Z,19.06
2023-05-09T11:52:24.551Z,19.07
2023-05-09T11:53:24.522Z,19.09
2023-05-09T11:54:24.500Z,19.10
2023-05-09T11:55:24.490Z,19.12
2023-05-09T11:56:24.481Z,19.13
2023-05-09T11:57:24.477Z,19.17
2023-05-09T11:58:24.469Z,19.23
2023-05-09T11:59:24.464Z,19.25
2023-05-09T12:00:24.446Z,19.25
2023-05-09T12:01:24.430Z,19.24
2023-05-09T12:02:24.471Z,19.23
2023-05-09T12:03:24.582Z,19.17
2023-05-09T12:04:24.438Z,19.16
2023-05-09T12:05:24.422Z,19.09
2023-05-09T12:06:24.383Z,19.10
2023-05-09T12:07:24.365Z,19.09
2023-05-09T12:08:24.385Z,19.09
2023-05-09T12:09:24.372Z,19.09
2023-05-09T12:10:24.340Z,19.09
2023-05-09T12:11:24.319Z,19.06
2023-05-09T12:12:24.371Z,19.06
2023-05-09T12:13:24.375Z,19.07
2023-05-09T12:14:24.284Z,19.07
2023-05-09T12:15:24.287Z,19.12
2023-05-09T12:16:24.318Z,19.15
2023-05-09T12:17:24.266Z,19.20
2023-05-09T12:18:24.259Z,19.24
2023-05-09T12:19:24.252Z,19.24
2023-05-09T12:20:24.249Z,19.27
2023-05-09T12:21:24.218Z,19.30
2023-05-09T12:22:24.206Z,19.34
2023-05-09T12:23:24.200Z,19.34
2023-05-09T12:24:24.329Z,19.31
2023-05-09T12:25:24.218Z,19.31
2023-05-09T12:26:24.159Z,19.28
2023-05-09T12:27:24.145Z,19.24
2023-05-09T12:28:24.180Z,19.25
2023-05-09T12:29:24.144Z,19.24
2023-05-09T12:30:24.142Z,19.16
2023-05-09T12:31:24.150Z,19.16
2023-05-09T12:32:24.117Z,19.15
2023-05-09T12:33:24.092Z,19.10
2023-05-09T12:34:24.082Z,19.13
2023-05-09T12:35:24.086Z,19.13
2023-05-09T12:36:24.088Z,19.16
2023-05-09T12:37:24.069Z,19.24
2023-05-09T12:38:24.059Z,19.28
2023-05-09T12:39:24.020Z,19.34
2023-05-09T12:40:24.018Z,19.40
2023-05-09T12:42:23.993Z,19.43
2023-05-09T12:43:24.044Z,19.40
2023-05-09T12:44:23.992Z,19.42
2023-05-09T12:45:23.969Z,19.46
2023-05-09T12:46:24.028Z,19.49
2023-05-09T12:47:23.983Z,19.47
2023-05-09T12:48:23.973Z,19.46
2023-05-09T12:49:23.928Z,19.42
2023-05-09T12:50:23.915Z,19.35
2023-05-09T12:51:23.923Z,19.32
2023-05-09T12:52:23.901Z,19.27
2023-05-09T12:53:23.922Z,19.24
2023-05-09T12:54:23.920Z,19.21
2023-05-09T12:55:23.881Z,19.10
2023-05-09T12:56:23.854Z,19.12